Time;durP1;ratioP1;P1;durP2;ratioP2;P2;SDS_P1;SDS_P2;PMS_P1;PMS_P2;Temp;Humidity;BMP_temperature;BMP_pressure;BME280_temperature;BME280_humidity;BME280_pressure;Samples;Min_cycle;Max_cycle;Signal;HPM_P1;HPM_P2
2021/11/23 00:01:04;;;;;;;7.30;2.40;;;6.40;99.90;;;;;;5060178;28;20070;-68
2021/11/23 00:03:30;;;;;;;7.55;1.83;;;6.40;99.90;;;;;;5059589;28;20052;-68
2021/11/23 00:05:56;;;;;;;6.15;2.20;;;6.40;99.90;;;;;;5059615;28;20044;-68
2021/11/23 00:08:21;;;;;;;18.05;1.95;;;6.50;99.90;;;;;;5062072;28;20390;-68
2021/11/23 00:10:47;;;;;;;11.18;3.25;;;6.50;99.90;;;;;;5059834;28;20052;-68
2021/11/23 00:13:15;;;;;;;12.93;3.00;;;6.50;99.90;;;;;;5061184;28;20048;-68
2021/11/23 00:15:40;;;;;;;16.23;2.90;;;6.50;99.90;;;;;;5059244;28;20037;-68
2021/11/23 00:18:08;;;;;;;10.43;2.65;;;6.50;99.90;;;;;;5058643;28;20412;-68
2021/11/23 00:20:35;;;;;;;12.20;3.13;;;6.50;99.90;;;;;;5056595;28;20542;-68
2021/11/23 00:23:02;;;;;;;14.05;2.38;;;6.60;99.90;;;;;;5056411;28;20146;-67
2021/11/23 00:25:29;;;;;;;12.35;2.83;;;6.60;99.90;;;;;;5059565;28;20047;-68
2021/11/23 00:27:56;;;;;;;11.38;3.10;;;6.70;99.90;;;;;;5058692;28;20040;-68
2021/11/23 00:30:24;;;;;;;13.23;2.83;;;6.60;99.90;;;;;;5056957;28;20080;-68
2021/11/23 00:32:50;;;;;;;8.60;2.42;;;6.60;99.90;;;;;;5058452;28;21176;-68
2021/11/23 00:35:18;;;;;;;10.88;2.65;;;6.60;99.90;;;;;;5059109;28;20120;-67
2021/11/23 00:37:47;;;;;;;9.77;2.60;;;6.70;99.90;;;;;;5058582;28;20080;-68
2021/11/23 00:40:14;;;;;;;12.30;2.40;;;6.70;99.90;;;;;;5057475;28;20044;-68
2021/11/23 00:42:40;;;;;;;12.15;2.20;;;6.70;99.90;;;;;;5062411;28;20378;-67
2021/11/23 00:45:08;;;;;;;5.45;1.98;;;6.80;99.90;;;;;;5062202;28;20036;-68
2021/11/23 00:47:33;;;;;;;8.75;2.45;;;6.80;99.90;;;;;;5060291;28;20681;-68
2021/11/23 00:49:59;;;;;;;8.30;1.83;;;6.80;99.90;;;;;;5059375;28;20040;-68
2021/11/23 00:52:25;;;;;;;13.63;3.22;;;6.80;99.90;;;;;;5092646;28;20040;-68
2021/11/23 00:54:51;;;;;;;9.38;2.47;;;6.90;99.90;;;;;;5061583;28;20060;-68
2021/11/23 00:57:16;;;;;;;10.20;3.20;;;6.90;99.90;;;;;;5059229;28;20037;-68
2021/11/23 00:59:42;;;;;;;13.18;3.15;;;7.00;99.90;;;;;;5061377;28;20048;-67
2021/11/23 01:02:08;;;;;;;7.20;2.25;;;7.00;99.90;;;;;;5047440;28;20110;-68
2021/11/23 01:04:35;;;;;;;7.45;2.40;;;7.00;99.90;;;;;;5063140;28;20102;-68
2021/11/23 01:07:01;;;;;;;14.63;2.80;;;7.00;99.90;;;;;;5060986;28;20057;-68
2021/11/23 01:09:26;;;;;;;8.30;2.45;;;7.00;99.90;;;;;;5060192;28;20064;-68
2021/11/23 01:11:52;;;;;;;13.05;2.65;;;7.00;99.90;;;;;;5062367;28;20124;-68
2021/11/23 01:14:18;;;;;;;11.10;2.35;;;7.10;99.90;;;;;;5062430;28;20040;-68
2021/11/23 01:16:47;;;;;;;5.90;2.60;;;7.10;99.90;;;;;;5061746;28;20494;-68
2021/11/23 01:19:16;;;;;;;10.38;2.15;;;7.10;99.90;;;;;;5062355;28;21015;-68
2021/11/23 01:21:43;;;;;;;8.57;1.85;;;7.10;99.90;;;;;;5060469;28;20044;-68
2021/11/23 01:24:10;;;;;;;8.32;2.00;;;7.10;99.90;;;;;;5059880;28;20052;-68
2021/11/23 01:26:36;;;;;;;11.75;2.20;;;7.20;99.90;;;;;;5061390;28;20036;-68
2021/11/23 01:29:02;;;;;;;10.43;3.20;;;7.20;99.90;;;;;;5061814;28;20453;-68
2021/11/23 01:31:27;;;;;;;14.95;2.80;;;7.20;99.90;;;;;;5061949;28;20065;-68
2021/11/23 01:33:53;;;;;;;10.73;2.60;;;7.20;99.90;;;;;;5061417;28;20068;-68
2021/11/23 01:36:19;;;;;;;6.35;2.28;;;7.20;99.90;;;;;;5060218;28;20101;-68
2021/11/23 01:38:45;;;;;;;4.57;1.75;;;7.30;99.90;;;;;;5061730;28;20032;-68
2021/11/23 01:41:11;;;;;;;7.50;2.53;;;7.30;99.90;;;;;;5060143;28;20123;-67
2021/11/23 01:43:36;;;;;;;9.23;2.38;;;7.30;99.90;;;;;;5063233;28;20032;-67
2021/11/23 01:46:04;;;;;;;5.78;1.50;;;7.30;99.90;;;;;;5062247;28;20090;-68
2021/11/23 01:48:30;;;;;;;8.65;2.80;;;7.30;99.90;;;;;;5062863;28;20087;-68
2021/11/23 01:50:56;;;;;;;9.98;3.10;;;7.30;99.90;;;;;;5061516;28;20131;-68
2021/11/23 01:53:22;;;;;;;9.07;2.42;;;7.30;99.90;;;;;;5058567;28;20033;-68
2021/11/23 01:55:47;;;;;;;11.05;2.95;;;7.40;99.90;;;;;;5076228;28;20052;-68
2021/11/23 01:58:14;;;;;;;7.65;2.40;;;7.40;99.90;;;;;;5062696;28;20036;-68
2021/11/23 02:00:40;;;;;;;6.35;1.73;;;7.50;99.90;;;;;;5057737;28;20055;-68
2021/11/23 02:03:07;;;;;;;9.73;2.13;;;7.50;99.90;;;;;;5059464;28;20063;-68
2021/11/23 02:05:33;;;;;;;8.18;2.55;;;7.50;99.90;;;;;;5061284;28;20052;-68
2021/11/23 02:07:59;;;;;;;8.65;2.40;;;7.50;99.90;;;;;;5058653;28;20056;-67
2021/11/23 02:10:25;;;;;;;4.88;1.88;;;7.50;99.90;;;;;;5059078;28;20040;-67
2021/11/23 02:12:51;;;;;;;6.63;2.55;;;7.60;99.90;;;;;;5061143;28;20033;-67
2021/11/23 02:15:17;;;;;;;5.68;2.47;;;7.60;99.90;;;;;;5061527;28;20041;-67
2021/11/23 02:17:44;;;;;;;7.82;2.42;;;7.70;99.90;;;;;;5058746;28;20040;-67
2021/11/23 02:20:21;;;;;;;6.35;1.58;;;7.70;99.90;;;;;;5060941;28;20029;-67
2021/11/23 02:22:48;;;;;;;7.00;2.35;;;7.70;99.90;;;;;;5063285;28;20051;-67
2021/11/23 02:25:15;;;;;;;6.60;2.20;;;7.80;99.90;;;;;;5062611;28;20059;-68
2021/11/23 02:27:42;;;;;;;9.25;2.47;;;7.80;99.90;;;;;;5060634;28;20033;-68
2021/11/23 02:30:10;;;;;;;8.98;2.75;;;7.80;99.90;;;;;;5060773;28;20041;-68
2021/11/23 02:32:51;;;;;;;6.80;2.05;;;7.80;99.90;;;;;;5063963;28;20120;-68
2021/11/23 02:35:18;;;;;;;8.80;2.60;;;7.80;99.90;;;;;;5063668;28;20111;-67
2021/11/23 02:37:46;;;;;;;11.18;3.20;;;7.90;99.90;;;;;;5061518;28;20032;-67
2021/11/23 02:40:12;;;;;;;6.50;2.67;;;7.90;99.90;;;;;;5059253;28;20128;-67
2021/11/23 02:42:39;;;;;;;12.88;3.03;;;8.00;99.90;;;;;;5062829;28;20066;-67
2021/11/23 02:45:05;;;;;;;6.78;3.00;;;8.00;99.90;;;;;;5060817;28;20044;-67
2021/11/23 02:47:35;;;;;;;7.00;2.13;;;8.00;99.90;;;;;;5059821;28;20055;-67
2021/11/23 02:50:01;;;;;;;12.52;3.85;;;8.00;99.90;;;;;;5058051;28;20041;-67
2021/11/23 02:52:27;;;;;;;15.18;4.15;;;8.10;99.90;;;;;;5057363;28;20035;-67
2021/11/23 02:55:04;;;;;;;9.07;3.25;;;8.10;99.90;;;;;;5057849;28;20036;-67
2021/11/23 02:57:32;;;;;;;15.20;3.53;;;8.10;99.90;;;;;;5060460;28;20113;-67
2021/11/23 02:59:58;;;;;;;10.30;2.97;;;8.20;99.90;;;;;;5058798;28;20040;-67
2021/11/23 03:02:25;;;;;;;6.03;2.80;;;8.20;99.90;;;;;;5063255;28;20174;-67
2021/11/23 03:04:52;;;;;;;9.65;3.45;;;8.20;99.90;;;;;;5058317;28;20051;-67
2021/11/23 03:07:18;;;;;;;17.92;4.50;;;8.30;99.90;;;;;;5057708;28;20105;-67
2021/11/23 03:09:44;;;;;;;10.02;4.07;;;8.30;99.90;;;;;;5059346;28;20043;-67
2021/11/23 03:12:18;;;;;;;9.63;3.90;;;8.30;99.90;;;;;;5061638;28;20758;-67
2021/11/23 03:14:44;;;;;;;14.77;4.18;;;8.30;99.90;;;;;;5059002;28;20055;-67
2021/11/23 03:17:16;;;;;;;9.50;4.03;;;8.40;99.90;;;;;;5059515;28;20063;-67
2021/11/23 03:19:43;;;;;;;6.28;3.70;;;8.30;99.90;;;;;;5044275;28;20089;-67
2021/11/23 03:22:09;;;;;;;10.68;3.70;;;8.40;99.90;;;;;;5057255;28;20044;-68
2021/11/23 03:24:35;;;;;;;8.82;3.40;;;8.40;99.90;;;;;;5060069;28;20059;-67
2021/11/23 03:27:01;;;;;;;10.57;3.28;;;8.40;99.90;;;;;;5061360;28;20060;-67
2021/11/23 03:29:27;;;;;;;10.02;3.65;;;8.40;99.90;;;;;;5057757;28;20207;-67
2021/11/23 03:31:54;;;;;;;8.68;2.67;;;8.40;99.90;;;;;;5060510;28;20029;-67
2021/11/23 03:34:20;;;;;;;11.50;3.60;;;8.50;99.90;;;;;;5065183;28;20379;-67
2021/11/23 03:36:46;;;;;;;9.23;3.78;;;8.50;99.90;;;;;;5060582;28;20055;-67
2021/11/23 03:39:12;;;;;;;6.57;2.65;;;8.50;99.90;;;;;;5064522;28;20044;-67
2021/11/23 03:41:39;;;;;;;9.55;2.95;;;8.50;99.90;;;;;;5063093;28;20041;-68
2021/11/23 03:44:05;;;;;;;9.93;2.78;;;8.50;99.90;;;;;;5060858;28;20029;-67
2021/11/23 03:46:31;;;;;;;5.00;2.45;;;8.50;99.90;;;;;;5063009;28;20079;-67
2021/11/23 03:48:57;;;;;;;4.28;1.67;;;8.50;99.90;;;;;;5062656;28;20037;-67
2021/11/23 03:51:23;;;;;;;10.57;1.95;;;8.50;99.90;;;;;;5060752;28;20090;-67
2021/11/23 03:53:48;;;;;;;8.15;2.30;;;8.50;99.90;;;;;;5062452;28;20037;-68
2021/11/23 03:56:14;;;;;;;7.85;2.95;;;8.60;99.90;;;;;;5064319;28;20044;-67
2021/11/23 03:58:40;;;;;;;9.75;2.08;;;8.60;99.90;;;;;;5060418;28;20047;-67
2021/11/23 04:01:07;;;;;;;12.00;2.40;;;8.60;99.90;;;;;;5061424;28;20048;-67
2021/11/23 04:03:34;;;;;;;10.63;1.80;;;8.60;99.90;;;;;;5060118;28;20045;-67
2021/11/23 04:06:04;;;;;;;9.13;2.28;;;8.60;99.90;;;;;;5062399;28;20510;-67
2021/11/23 04:08:31;;;;;;;10.73;2.22;;;8.60;99.90;;;;;;5063450;28;20117;-67
2021/11/23 04:10:56;;;;;;;5.28;1.48;;;8.50;99.90;;;;;;5063926;28;20040;-68
2021/11/23 04:13:22;;;;;;;6.93;1.40;;;8.50;99.90;;;;;;5092441;28;20032;-68
2021/11/23 04:15:48;;;;;;;7.75;2.13;;;8.50;99.90;;;;;;5060813;28;20044;-68
2021/11/23 04:18:14;;;;;;;6.22;1.80;;;8.50;99.90;;;;;;5063828;28;20044;-68
2021/11/23 04:20:40;;;;;;;7.80;2.10;;;8.50;99.90;;;;;;5066402;28;20040;-68
2021/11/23 04:23:06;;;;;;;5.05;1.63;;;8.60;99.90;;;;;;5068834;28;20089;-68
2021/11/23 04:25:32;;;;;;;5.53;1.67;;;8.50;99.90;;;;;;5066479;28;20036;-67
2021/11/23 04:27:58;;;;;;;8.73;2.33;;;8.60;99.90;;;;;;5063274;28;20036;-67
2021/11/23 04:30:24;;;;;;;7.15;1.55;;;8.50;99.90;;;;;;5096273;28;20139;-67
2021/11/23 04:32:50;;;;;;;6.43;1.50;;;8.60;99.90;;;;;;5066095;28;20037;-67
2021/11/23 04:35:16;;;;;;;7.43;1.60;;;8.60;99.90;;;;;;5067481;28;20098;-67
2021/11/23 04:37:43;;;;;;;4.57;1.25;;;8.50;99.90;;;;;;5065891;28;20041;-67
2021/11/23 04:40:11;;;;;;;4.03;1.27;;;8.50;99.90;;;;;;5063972;28;20059;-67
2021/11/23 04:42:37;;;;;;;6.78;1.17;;;8.60;99.90;;;;;;5062086;28;20048;-67
2021/11/23 04:45:05;;;;;;;4.68;1.58;;;8.50;99.90;;;;;;5067083;28;20044;-67
2021/11/23 04:47:31;;;;;;;5.00;1.10;;;8.60;99.90;;;;;;5065446;28;20052;-67
2021/11/23 04:49:57;;;;;;;4.38;0.90;;;8.60;99.90;;;;;;5063327;28;20044;-67
2021/11/23 04:52:23;;;;;;;4.70;1.65;;;8.60;99.90;;;;;;5080175;28;20036;-67
2021/11/23 04:54:52;;;;;;;4.40;1.75;;;8.60;99.90;;;;;;5067376;28;20040;-67
2021/11/23 04:57:18;;;;;;;4.05;1.25;;;8.60;99.90;;;;;;5066472;28;20041;-67
2021/11/23 04:59:44;;;;;;;5.07;1.50;;;8.60;99.90;;;;;;5063945;28;20160;-67
2021/11/23 05:02:10;;;;;;;6.70;1.30;;;8.60;99.90;;;;;;5064139;28;20751;-67
2021/11/23 05:04:36;;;;;;;6.22;2.25;;;8.70;99.90;;;;;;5064586;28;20081;-67
2021/11/23 05:07:01;;;;;;;6.47;2.83;;;8.70;99.90;;;;;;5066141;28;20037;-67
2021/11/23 05:09:28;;;;;;;16.42;3.28;;;8.70;99.90;;;;;;5062838;28;20044;-67
2021/11/23 05:11:53;;;;;;;13.13;3.58;;;8.70;99.90;;;;;;5067040;28;20191;-67
2021/11/23 05:14:19;;;;;;;18.75;3.42;;;8.70;99.90;;;;;;5063687;28;20100;-67
2021/11/23 05:16:45;;;;;;;17.08;3.00;;;8.70;99.90;;;;;;5064279;28;20033;-67
2021/11/23 05:19:11;;;;;;;10.43;2.47;;;8.70;99.90;;;;;;5063680;28;20025;-67
2021/11/23 05:21:37;;;;;;;10.50;2.17;;;8.70;99.90;;;;;;5094089;28;20475;-67
2021/11/23 05:24:03;;;;;;;10.98;2.97;;;8.70;99.90;;;;;;5063508;28;20048;-68
2021/11/23 05:26:29;;;;;;;9.18;2.47;;;8.70;99.90;;;;;;5061655;28;20048;-67
2021/11/23 05:28:55;;;;;;;13.30;2.50;;;8.70;99.90;;;;;;5060966;28;20037;-67
2021/11/23 05:31:21;;;;;;;11.05;1.70;;;8.70;99.90;;;;;;5062792;28;20040;-67
2021/11/23 05:33:46;;;;;;;11.10;1.85;;;8.70;99.90;;;;;;5067481;28;20032;-67
2021/11/23 05:36:21;;;;;;;7.93;2.03;;;8.70;99.90;;;;;;5065194;28;20419;-67
2021/11/23 05:38:47;;;;;;;8.17;1.83;;;8.70;99.90;;;;;;5061595;28;20036;-67
2021/11/23 05:41:13;;;;;;;6.43;1.50;;;8.70;99.90;;;;;;5095286;28;20344;-67
2021/11/23 05:43:38;;;;;;;4.53;1.50;;;8.70;99.90;;;;;;5067287;28;20033;-67
2021/11/23 05:46:04;;;;;;;5.97;1.98;;;8.60;99.90;;;;;;5065421;28;20048;-67
2021/11/23 05:48:30;;;;;;;6.32;1.85;;;8.60;99.90;;;;;;5063180;28;20125;-67
2021/11/23 05:50:58;;;;;;;10.48;2.00;;;8.60;99.90;;;;;;5061753;28;20048;-67
2021/11/23 05:53:23;;;;;;;13.65;1.92;;;8.60;99.90;;;;;;5059399;28;20124;-67
2021/11/23 05:55:49;;;;;;;7.20;2.20;;;8.70;99.90;;;;;;5063453;28;20581;-67
2021/11/23 05:58:15;;;;;;;9.07;1.98;;;8.60;99.90;;;;;;5095660;28;20089;-67
2021/11/23 06:00:40;;;;;;;8.73;2.17;;;8.60;99.90;;;;;;5066084;28;20443;-67
2021/11/23 06:03:06;;;;;;;8.95;1.80;;;8.60;99.90;;;;;;5063073;28;20399;-67
2021/11/23 06:05:32;;;;;;;12.43;2.42;;;8.60;99.90;;;;;;5066247;28;20052;-67
2021/11/23 06:07:57;;;;;;;7.53;1.33;;;8.50;99.90;;;;;;5092386;28;20040;-67
2021/11/23 06:10:23;;;;;;;8.45;1.58;;;8.50;99.90;;;;;;5059990;28;20099;-68
2021/11/23 06:12:49;;;;;;;18.05;2.08;;;8.40;99.90;;;;;;5059324;28;20044;-67
2021/11/23 06:15:15;;;;;;;6.82;1.63;;;8.40;99.90;;;;;;5061146;28;20040;-67
2021/11/23 06:17:42;;;;;;;8.75;1.60;;;8.30;99.90;;;;;;5059870;28;20047;-67
2021/11/23 06:20:08;;;;;;;12.85;1.88;;;8.40;99.90;;;;;;5059491;28;20398;-67
2021/11/23 06:22:34;;;;;;;6.47;1.67;;;8.30;99.90;;;;;;5061633;28;20499;-67
2021/11/23 06:25:01;;;;;;;19.25;2.10;;;8.20;99.90;;;;;;5063019;28;20937;-67
2021/11/23 06:27:26;;;;;;;18.50;1.92;;;8.20;99.90;;;;;;5059886;28;20080;-67
2021/11/23 06:29:52;;;;;;;80.43;3.47;;;8.20;99.90;;;;;;5058399;28;20451;-67
2021/11/23 06:32:17;;;;;;;29.08;2.30;;;8.10;99.90;;;;;;5060944;28;20045;-67
2021/11/23 06:34:43;;;;;;;73.80;3.40;;;8.10;99.90;;;;;;5063868;28;20115;-68
2021/11/23 06:37:09;;;;;;;12.10;1.77;;;8.00;99.90;;;;;;5060968;28;20425;-67
2021/11/23 06:39:35;;;;;;;8.55;1.73;;;8.00;99.90;;;;;;5057107;28;20349;-68
2021/11/23 06:42:00;;;;;;;9.38;1.70;;;7.90;99.90;;;;;;5057732;28;20051;-67
2021/11/23 06:44:26;;;;;;;19.58;1.58;;;7.90;99.90;;;;;;5062239;28;20048;-67
2021/11/23 06:46:52;;;;;;;5.45;0.93;;;7.90;99.90;;;;;;5063586;28;20411;-67
2021/11/23 06:49:18;;;;;;;9.25;0.90;;;8.00;99.90;;;;;;5089180;28;20054;-67
2021/11/23 06:51:43;;;;;;;11.02;1.25;;;7.90;99.90;;;;;;5062296;28;20028;-67
2021/11/23 06:54:09;;;;;;;8.23;1.52;;;7.90;99.90;;;;;;5060557;28;20043;-67
2021/11/23 06:56:34;;;;;;;9.25;1.35;;;7.80;99.90;;;;;;5059571;28;20070;-67
2021/11/23 06:59:01;;;;;;;5.60;1.23;;;7.90;99.90;;;;;;5056671;28;20078;-66
2021/11/23 07:01:27;;;;;;;10.70;1.42;;;7.90;99.90;;;;;;5060486;28;20044;-65
2021/11/23 07:03:52;;;;;;;5.97;0.93;;;7.90;99.90;;;;;;5066481;28;20123;-66
2021/11/23 07:06:18;;;;;;;5.72;1.40;;;8.00;99.90;;;;;;5065548;28;20048;-66
2021/11/23 07:08:44;;;;;;;9.55;1.70;;;7.90;99.90;;;;;;5060259;28;20044;-67
2021/11/23 07:11:19;;;;;;;5.43;0.70;;;7.90;99.90;;;;;;5058241;28;20038;-66
2021/11/23 07:13:46;;;;;;;8.57;1.20;;;8.00;99.90;;;;;;5056952;28;20037;-66
2021/11/23 07:16:12;;;;;;;4.28;1.10;;;8.00;99.90;;;;;;5059797;28;20608;-66
2021/11/23 07:18:37;;;;;;;4.25;0.85;;;8.00;99.90;;;;;;5059440;28;20143;-66
2021/11/23 07:21:03;;;;;;;7.97;1.00;;;8.00;99.90;;;;;;5076855;28;20052;-66
2021/11/23 07:23:29;;;;;;;9.60;1.10;;;8.00;99.90;;;;;;5087746;28;20055;-66
2021/11/23 07:25:54;;;;;;;6.68;0.95;;;8.00;99.90;;;;;;5090648;28;20067;-67
2021/11/23 07:28:20;;;;;;;5.00;0.75;;;8.00;99.90;;;;;;5059361;28;20048;-67
2021/11/23 07:30:46;;;;;;;9.52;0.75;;;8.00;99.90;;;;;;5052514;28;20051;-67
2021/11/23 07:33:12;;;;;;;13.35;1.00;;;8.00;99.90;;;;;;5059152;28;20496;-67
2021/11/23 07:35:38;;;;;;;9.90;1.15;;;8.00;99.90;;;;;;5057097;28;20090;-67
2021/11/23 07:38:04;;;;;;;12.52;1.63;;;8.00;99.90;;;;;;5057255;28;20041;-67
2021/11/23 07:40:29;;;;;;;5.00;0.70;;;8.00;99.90;;;;;;5056126;28;20040;-67
2021/11/23 07:42:55;;;;;;;6.25;0.60;;;8.00;99.90;;;;;;5057922;28;20123;-67
2021/11/23 07:45:22;;;;;;;8.63;0.70;;;7.90;99.90;;;;;;5060335;28;20060;-67
2021/11/23 07:47:48;;;;;;;4.10;0.70;;;8.00;99.90;;;;;;5059095;28;20090;-67
2021/11/23 07:50:14;;;;;;;7.07;0.68;;;7.90;99.90;;;;;;5057645;28;20044;-67
2021/11/23 07:52:40;;;;;;;8.68;1.50;;;8.00;99.90;;;;;;5058539;28;20052;-67
2021/11/23 07:55:06;;;;;;;9.30;0.88;;;8.00;99.90;;;;;;5059005;28;20049;-67
2021/11/23 07:57:33;;;;;;;12.60;1.35;;;8.00;99.90;;;;;;5057891;28;20055;-67
2021/11/23 07:59:59;;;;;;;6.40;0.85;;;8.00;99.90;;;;;;5057352;28;20048;-67
2021/11/23 08:02:25;;;;;;;13.88;1.50;;;8.10;99.90;;;;;;5056803;28;20048;-67
2021/11/23 08:04:50;;;;;;;9.70;0.80;;;8.10;99.90;;;;;;5057925;28;20739;-67
2021/11/23 08:07:16;;;;;;;10.27;0.98;;;8.10;99.90;;;;;;5057891;28;20037;-67
2021/11/23 08:09:43;;;;;;;3.08;0.63;;;8.10;99.90;;;;;;5055803;28;20052;-67
2021/11/23 08:12:10;;;;;;;13.30;1.52;;;8.10;99.90;;;;;;5056347;28;20056;-67
2021/11/23 08:14:35;;;;;;;10.57;1.50;;;8.10;99.90;;;;;;5042070;28;20086;-67
2021/11/23 08:17:01;;;;;;;9.63;1.00;;;8.10;99.90;;;;;;5056278;28;20782;-67
2021/11/23 08:19:27;;;;;;;21.35;1.50;;;8.10;99.90;;;;;;5088744;28;20486;-67
2021/11/23 08:21:52;;;;;;;10.85;1.05;;;8.20;99.90;;;;;;5058167;28;20075;-67
2021/11/23 08:24:18;;;;;;;6.65;1.00;;;8.20;99.90;;;;;;5057535;28;20032;-67
2021/11/23 08:26:44;;;;;;;13.07;1.17;;;8.30;99.90;;;;;;5056578;28;20035;-67
2021/11/23 08:29:10;;;;;;;8.95;1.10;;;8.30;99.90;;;;;;5088522;28;20044;-67
2021/11/23 08:31:36;;;;;;;10.65;0.50;;;8.40;99.90;;;;;;5056517;28;20049;-67
2021/11/23 08:34:05;;;;;;;6.78;1.25;;;8.50;99.90;;;;;;5054627;28;20064;-67
2021/11/23 08:36:34;;;;;;;14.55;1.00;;;8.50;99.90;;;;;;5058076;28;20123;-67
2021/11/23 08:39:02;;;;;;;7.82;0.65;;;8.60;99.90;;;;;;5064078;28;20040;-67
2021/11/23 08:41:34;;;;;;;10.18;0.82;;;8.60;99.90;;;;;;5057618;28;20047;-68
2021/11/23 08:44:00;;;;;;;9.65;1.35;;;8.60;99.90;;;;;;5068680;28;20086;-68
2021/11/23 08:46:27;;;;;;;7.15;0.80;;;8.60;99.90;;;;;;5063665;28;20053;-67
2021/11/23 08:48:54;;;;;;;9.07;0.88;;;8.70;99.90;;;;;;5096627;28;20044;-67
2021/11/23 08:51:24;;;;;;;9.07;0.68;;;8.70;99.90;;;;;;5063965;28;20040;-67
2021/11/23 08:53:51;;;;;;;8.75;1.00;;;8.80;99.90;;;;;;5065828;28;20040;-67
2021/11/23 08:56:17;;;;;;;7.13;1.30;;;8.80;99.90;;;;;;5058166;28;20141;-67
2021/11/23 08:58:46;;;;;;;5.40;1.33;;;8.80;99.90;;;;;;5059081;28;20175;-67
2021/11/23 09:01:12;;;;;;;5.50;0.68;;;8.90;99.90;;;;;;5057024;28;20102;-67
2021/11/23 09:03:39;;;;;;;9.98;0.90;;;8.90;99.90;;;;;;5061373;28;20052;-67
2021/11/23 09:06:06;;;;;;;10.50;1.98;;;8.80;99.90;;;;;;5061171;28;22022;-67
2021/11/23 09:08:35;;;;;;;6.97;0.98;;;8.90;99.90;;;;;;5062823;28;20448;-67
2021/11/23 09:11:01;;;;;;;6.93;1.00;;;9.00;99.90;;;;;;5059208;28;20049;-67
2021/11/23 09:13:27;;;;;;;7.53;0.50;;;9.00;99.90;;;;;;5061361;28;20048;-67
2021/11/23 09:15:52;;;;;;;3.25;0.40;;;9.10;99.90;;;;;;5062949;28;20094;-67
2021/11/23 09:18:18;;;;;;;5.20;0.85;;;9.30;99.90;;;;;;5061542;28;20122;-67
2021/11/23 09:20:44;;;;;;;3.13;0.60;;;9.30;99.90;;;;;;5091232;28;20098;-67
2021/11/23 09:23:13;;;;;;;9.35;0.80;;;9.40;99.90;;;;;;5062643;28;20050;-67
2021/11/23 09:25:40;;;;;;;8.73;1.23;;;9.30;99.90;;;;;;5061740;28;20455;-67
2021/11/23 09:28:07;;;;;;;2.95;0.52;;;9.40;99.90;;;;;;5059756;28;20040;-67
2021/11/23 09:30:34;;;;;;;2.97;0.60;;;9.40;99.90;;;;;;5058824;28;20049;-67
2021/11/23 09:33:01;;;;;;;10.57;1.42;;;9.40;99.90;;;;;;5060512;28;20047;-67
2021/11/23 09:35:27;;;;;;;3.75;0.45;;;9.40;99.90;;;;;;5060659;28;20037;-67
2021/11/23 09:37:55;;;;;;;8.77;0.57;;;9.50;99.90;;;;;;5061074;28;20074;-67
2021/11/23 09:40:22;;;;;;;4.43;0.63;;;9.50;99.90;;;;;;5060570;28;20564;-67
2021/11/23 09:42:49;;;;;;;9.68;0.90;;;9.50;99.90;;;;;;5060132;28;20339;-67
2021/11/23 09:45:16;;;;;;;7.75;0.70;;;9.50;99.90;;;;;;5061197;28;20037;-67
2021/11/23 09:47:42;;;;;;;4.68;0.43;;;9.50;99.90;;;;;;5059910;28;20044;-67
2021/11/23 09:50:08;;;;;;;8.52;0.60;;;9.50;99.90;;;;;;5059849;28;20121;-67
2021/11/23 09:52:34;;;;;;;5.45;0.65;;;9.50;99.90;;;;;;5061415;28;20043;-67
2021/11/23 09:55:00;;;;;;;9.50;0.70;;;9.50;99.90;;;;;;5061200;28;20035;-68
2021/11/23 09:57:26;;;;;;;5.88;0.93;;;9.50;99.90;;;;;;5060323;28;20471;-67
2021/11/23 09:59:52;;;;;;;9.27;1.40;;;9.60;99.90;;;;;;5059022;28;20040;-67
2021/11/23 10:02:26;;;;;;;11.85;1.25;;;9.70;99.90;;;;;;5061450;28;20072;-67
2021/11/23 10:04:57;;;;;;;9.02;1.20;;;9.80;99.90;;;;;;5090607;28;20482;-67
2021/11/23 10:07:34;;;;;;;5.85;0.63;;;9.90;99.90;;;;;;5058001;28;20064;-67
2021/11/23 10:10:13;;;;;;;8.02;0.80;;;10.00;99.90;;;;;;5057872;28;20167;-67
2021/11/23 10:12:38;;;;;;;10.18;1.05;;;10.00;99.90;;;;;;5058353;28;20462;-67
2021/11/23 10:15:15;;;;;;;8.82;1.20;;;10.00;99.90;;;;;;5059548;28;20039;-67
2021/11/23 10:17:49;;;;;;;7.22;0.95;;;10.00;99.90;;;;;;5060535;28;20044;-67
2021/11/23 10:20:31;;;;;;;5.35;0.98;;;10.00;99.90;;;;;;5060177;28;20180;-68
2021/11/23 10:23:07;;;;;;;8.00;0.80;;;10.00;99.90;;;;;;5060847;28;20099;-67
2021/11/23 10:25:32;;;;;;;6.15;0.80;;;10.00;99.90;;;;;;5059431;28;20043;-67
2021/11/23 10:27:58;;;;;;;5.45;0.50;;;10.00;99.90;;;;;;5060187;28;20037;-67
2021/11/23 10:30:24;;;;;;;11.55;1.42;;;9.90;99.90;;;;;;5059871;28;20045;-67
2021/11/23 10:32:54;;;;;;;9.45;1.10;;;10.00;99.90;;;;;;5061355;28;20043;-67
2021/11/23 10:35:23;;;;;;;11.57;1.10;;;10.10;99.90;;;;;;5059307;28;20075;-67
2021/11/23 10:37:49;;;;;;;9.60;0.77;;;10.10;99.90;;;;;;5090282;28;20074;-67
2021/11/23 10:40:22;;;;;;;6.57;0.70;;;10.20;99.90;;;;;;5058739;28;20448;-67
2021/11/23 10:43:00;;;;;;;7.20;0.93;;;10.30;99.90;;;;;;5058684;28;20040;-67
2021/11/23 10:45:35;;;;;;;3.92;0.63;;;10.30;99.90;;;;;;5059624;28;20052;-68
2021/11/23 10:48:08;;;;;;;6.80;1.00;;;10.30;99.90;;;;;;5088562;28;20075;-68
2021/11/23 10:50:42;;;;;;;5.45;1.08;;;10.30;99.90;;;;;;5058915;28;20054;-67
2021/11/23 10:53:45;;;;;;;5.30;0.57;;;10.40;99.90;;;;;;5061107;28;20069;-68
2021/11/23 10:56:22;;;;;;;6.85;0.95;;;10.40;99.90;;;;;;5057771;28;20394;-68
2021/11/23 10:58:56;;;;;;;7.15;0.65;;;10.50;99.90;;;;;;5059529;28;20853;-68
2021/11/23 11:01:32;;;;;;;4.75;0.85;;;10.70;99.90;;;;;;5059571;28;20501;-68
2021/11/23 11:03:58;;;;;;;5.28;0.70;;;10.90;99.90;;;;;;5062671;28;20524;-68
2021/11/23 11:06:24;;;;;;;6.90;1.05;;;11.20;99.90;;;;;;5057742;28;20395;-68
2021/11/23 11:09:13;;;;;;;6.15;0.95;;;11.40;99.90;;;;;;5057780;28;20052;-68
2021/11/23 11:12:07;;;;;;;5.18;0.65;;;11.60;99.90;;;;;;5061474;28;20052;-68
2021/11/23 11:14:37;;;;;;;6.50;0.90;;;11.90;99.90;;;;;;5058462;28;20331;-68
2021/11/23 11:17:10;;;;;;;4.43;0.98;;;12.10;99.90;;;;;;5061802;28;20037;-68
2021/11/23 11:19:48;;;;;;;5.68;0.70;;;12.30;99.90;;;;;;5073615;28;20045;-68
2021/11/23 11:22:25;;;;;;;7.32;0.80;;;12.40;99.90;;;;;;5059667;28;20040;-68
2021/11/23 11:27:32;;;;;;;8.85;0.60;;;12.70;99.90;;;;;;5058807;28;20052;-68
2021/11/23 11:30:26;;;;;;;4.40;0.57;;;13.10;99.90;;;;;;5055368;28;20054;-68
2021/11/23 11:33:00;;;;;;;4.18;0.65;;;13.10;99.90;;;;;;5082939;28;21567;-68
2021/11/23 11:35:30;;;;;;;6.28;1.00;;;13.30;99.90;;;;;;5054928;28;20421;-68
2021/11/23 11:37:59;;;;;;;7.18;1.25;;;13.30;99.90;;;;;;5056894;28;20049;-68
2021/11/23 11:40:43;;;;;;;6.85;0.80;;;13.40;99.90;;;;;;5054679;28;20052;-68
2021/11/23 11:43:10;;;;;;;4.03;1.00;;;13.50;99.90;;;;;;5058791;28;20070;-68
2021/11/23 11:45:40;;;;;;;3.90;0.73;;;13.50;99.90;;;;;;5058675;28;20932;-68
2021/11/23 11:48:41;;;;;;;8.23;1.02;;;13.40;99.90;;;;;;5055004;28;20052;-68
2021/11/23 11:51:10;;;;;;;6.50;0.73;;;13.50;99.90;;;;;;5057582;28;20049;-68
2021/11/23 11:53:47;;;;;;;4.10;0.85;;;13.60;99.90;;;;;;5091588;28;20051;-68
2021/11/23 11:56:15;;;;;;;6.07;0.60;;;13.40;99.90;;;;;;5058636;28;20063;-68
2021/11/23 11:58:52;;;;;;;4.75;1.15;;;13.30;99.90;;;;;;5058588;28;20086;-68
2021/11/23 12:01:22;;;;;;;3.38;0.60;;;13.30;99.90;;;;;;5057072;28;20261;-68
2021/11/23 12:04:01;;;;;;;16.20;1.00;;;13.10;99.90;;;;;;5061793;28;20041;-68
2021/11/23 12:09:27;;;;;;;5.07;0.50;;;12.70;99.90;;;;;;5059512;28;20923;-67
2021/11/23 12:12:19;;;;;;;4.55;0.57;;;12.60;99.90;;;;;;5059551;28;20036;-67
2021/11/23 12:14:52;;;;;;;3.38;0.45;;;12.50;99.90;;;;;;5061272;28;20540;-68
2021/11/23 12:17:50;;;;;;;2.10;0.32;;;12.40;99.90;;;;;;5062251;28;20044;-67
2021/11/23 12:20:35;;;;;;;9.35;0.73;;;12.30;99.90;;;;;;5050161;28;20056;-68
2021/11/23 12:23:20;;;;;;;5.03;0.90;;;12.20;99.90;;;;;;5093890;28;20131;-68
2021/11/23 12:25:59;;;;;;;6.60;0.80;;;12.10;99.90;;;;;;5062143;28;20708;-68
2021/11/23 12:28:27;;;;;;;3.35;0.20;;;12.00;99.90;;;;;;5062411;28;20068;-67
2021/11/23 12:30:54;;;;;;;2.75;0.30;;;11.90;99.90;;;;;;5061715;28;20127;-67
2021/11/23 12:33:20;;;;;;;10.35;0.30;;;11.90;99.90;;;;;;5059325;28;20490;-67
2021/11/23 12:35:48;;;;;;;7.28;0.75;;;11.70;99.90;;;;;;5060158;28;20504;-68
2021/11/23 12:38:27;;;;;;;3.53;0.25;;;11.70;99.90;;;;;;5064529;28;20516;-67
2021/11/23 12:40:53;;;;;;;9.55;0.70;;;11.70;99.90;;;;;;5061510;28;20062;-67
2021/11/23 12:43:19;;;;;;;4.60;0.50;;;11.50;99.90;;;;;;5065894;28;20886;-68
2021/11/23 12:45:47;;;;;;;3.08;0.30;;;11.40;99.90;;;;;;5063926;28;20048;-67
2021/11/23 12:48:16;;;;;;;5.47;0.35;;;11.30;99.90;;;;;;5061938;28;20128;-67
2021/11/23 12:50:43;;;;;;;1.85;0.30;;;11.30;99.90;;;;;;5045523;28;20040;-67
2021/11/23 12:53:15;;;;;;;4.35;0.68;;;11.30;99.90;;;;;;5066106;28;20516;-67
2021/11/23 12:56:00;;;;;;;3.03;0.22;;;11.20;99.90;;;;;;5064673;28;20069;-67
2021/11/23 12:58:36;;;;;;;4.78;0.30;;;11.20;99.90;;;;;;5064779;28;20044;-68
2021/11/23 13:01:03;;;;;;;3.55;0.40;;;11.20;99.90;;;;;;5095789;28;20513;-67
2021/11/23 13:03:29;;;;;;;5.35;0.65;;;11.20;99.90;;;;;;5063190;28;20044;-67